Carnival Pride — H3VU — position and weather

sailwx.info

Track history (hours):
 
Tides and Currents Weather Stations Pressure Air Temp Water Temp Dewpoint Dewpoint Depression Visibility Wind Speed Wind Dir Waves Ship Positions

Carnival Pride

Operator: Carnival Cruise Lines

Last reported at 2016-Nov-30 00:00 UTC. Time now 2016-Dec-02 18:04 UTC.
Position N 30°18' W 080°12'.

Type: Ship. MMSI: 354215000.

Wind from 170 at 28 knots

Barometer 1016.0 mb
Air temperature 26.0 ° C
Visibility: greater than 10.8 NM
Dewpoint 21.5 ° C
Water temperature 24.0 ° C

Date/timePositionNaut miles runAvg speedWind from/ knotsBaromVisibWave heightAir tempDewpointWater temp
2016-Nov-30 00:00N 30°18' W 080°12'27711.5 170 / 281016.010.8 26.021.524.0
2016-Nov-29 00:00N 33°54' W 076°48'13911.5 140 / 351020.0 19.013.824.0
2016-Nov-28 12:00N 35°48' W 075°12'6117.8 090 / 51024.0 18.014.614.0
2016-Nov-28 08:33N 36°44' W 075°43'10 9.9
2016-Nov-28 07:32N 36°51' W 075°51'1010.2
2016-Nov-28 06:33N 36°58' W 075°60'3716.6
2016-Nov-28 04:18N 37°36' W 076°04'7118.9
2016-Nov-28 00:33N 38°45' W 076°26'1818.3
2016-Nov-27 23:34N 39°03' W 076°23'1211.7
2016-Nov-27 22:33N 39°13' W 076°31'5 4.9
2016-Nov-27 21:32N 39°16' W 076°36'0 0.0
2016-Nov-27 20:32N 39°16' W 076°36'0 0.0
2016-Nov-27 19:32N 39°16' W 076°36'0 0.0
2016-Nov-27 18:32N 39°16' W 076°36'0 0.0
2016-Nov-27 17:32N 39°16' W 076°36'0 0.0
2016-Nov-27 16:32N 39°16' W 076°36'0 0.0
2016-Nov-27 15:32N 39°16' W 076°36'0 0.0
2016-Nov-27 14:32N 39°16' W 076°36'2 1.8
2016-Nov-27 13:33N 39°15' W 076°34'1212.0
2016-Nov-27 12:33N 39°06' W 076°24'1818.1
2016-Nov-27 11:33N 38°48' W 076°25'4218.3
2016-Nov-27 09:15N 38°07' W 076°13'6617.9
2016-Nov-27 05:33N 37°01' W 076°03'1111.2
2016-Nov-27 04:33N 36°53' W 075°53'  
2016-Nov-24 12:00N 25°48' W 077°36'393 8.2 060 / 281020.010.8 23.019.926.0
2016-Nov-22 12:00N 32°12' W 079°12'29812.4 040 / 171022.0 20.013.024.7
2016-Nov-21 12:00N 35°54' W 075°12'6117.0 320 / 271016.010.8 7.0-0.915.0
2016-Nov-21 08:24N 36°48' W 075°46'1010.6
2016-Nov-21 07:29N 36°54' W 075°55'12017.4
2016-Nov-21 00:34N 38°53' W 076°24'2412.1
2016-Nov-20 22:34N 39°15' W 076°35'1 0.9
2016-Nov-20 21:32N 39°16' W 076°36'0 0.0
2016-Nov-20 17:32N 39°16' W 076°36'0 0.0
2016-Nov-20 16:32N 39°16' W 076°36'0 0.0
2016-Nov-20 14:32N 39°16' W 076°36'0 0.0
2016-Nov-20 13:33N 39°16' W 076°36'8 7.6
2016-Nov-20 12:33N 39°11' W 076°28'12918.5
2016-Nov-20 05:33N 37°03' W 076°05'1312.8
2016-Nov-20 04:33N 36°54' W 075°54'  
Track history (hours):
 
Tides and Currents Weather Stations Pressure Air Temp Water Temp Dewpoint Dewpoint Depression Visibility Wind Speed Wind Dir Waves Ship Positions

Carnival Pride

Operator: Carnival Cruise Lines

Last reported at 2016-Nov-30 00:00 UTC. Time now 2016-Dec-02 18:04 UTC.
Position N 30°18' W 080°12'.

Type: Ship. MMSI: 354215000.

Wind from 170 at 28 knots

Barometer 1016.0 mb
Air temperature 26.0 ° C
Visibility: greater than 10.8 NM
Dewpoint 21.5 ° C
Water temperature 24.0 ° C

Date/timePositionNaut miles runAvg speedWind from/ knotsBaromVisibWave heightAir tempDewpointWater temp
2016-Nov-30 00:00N 30°18' W 080°12'27711.5 170 / 281016.010.8 26.021.524.0
2016-Nov-29 00:00N 33°54' W 076°48'13911.5 140 / 351020.0 19.013.824.0
2016-Nov-28 12:00N 35°48' W 075°12'6117.8 090 / 51024.0 18.014.614.0
2016-Nov-28 08:33N 36°44' W 075°43'10 9.9
2016-Nov-28 07:32N 36°51' W 075°51'1010.2
2016-Nov-28 06:33N 36°58' W 075°60'3716.6
2016-Nov-28 04:18N 37°36' W 076°04'7118.9
2016-Nov-28 00:33N 38°45' W 076°26'1818.3
2016-Nov-27 23:34N 39°03' W 076°23'1211.7
2016-Nov-27 22:33N 39°13' W 076°31'5 4.9
2016-Nov-27 21:32N 39°16' W 076°36'0 0.0
2016-Nov-27 20:32N 39°16' W 076°36'0 0.0
2016-Nov-27 19:32N 39°16' W 076°36'0 0.0
2016-Nov-27 18:32N 39°16' W 076°36'0 0.0
2016-Nov-27 17:32N 39°16' W 076°36'0 0.0
2016-Nov-27 16:32N 39°16' W 076°36'0 0.0
2016-Nov-27 15:32N 39°16' W 076°36'0 0.0
2016-Nov-27 14:32N 39°16' W 076°36'2 1.8
2016-Nov-27 13:33N 39°15' W 076°34'1212.0
2016-Nov-27 12:33N 39°06' W 076°24'1818.1
2016-Nov-27 11:33N 38°48' W 076°25'4218.3
2016-Nov-27 09:15N 38°07' W 076°13'6617.9
2016-Nov-27 05:33N 37°01' W 076°03'1111.2
2016-Nov-27 04:33N 36°53' W 075°53'  
2016-Nov-24 12:00N 25°48' W 077°36'393 8.2 060 / 281020.010.8 23.019.926.0
2016-Nov-22 12:00N 32°12' W 079°12'29812.4 040 / 171022.0 20.013.024.7
2016-Nov-21 12:00N 35°54' W 075°12'6117.0 320 / 271016.010.8 7.0-0.915.0
2016-Nov-21 08:24N 36°48' W 075°46'1010.6
2016-Nov-21 07:29N 36°54' W 075°55'12017.4
2016-Nov-21 00:34N 38°53' W 076°24'2412.1
2016-Nov-20 22:34N 39°15' W 076°35'1 0.9
2016-Nov-20 21:32N 39°16' W 076°36'0 0.0
2016-Nov-20 17:32N 39°16' W 076°36'0 0.0
2016-Nov-20 16:32N 39°16' W 076°36'0 0.0
2016-Nov-20 14:32N 39°16' W 076°36'0 0.0
2016-Nov-20 13:33N 39°16' W 076°36'8 7.6
2016-Nov-20 12:33N 39°11' W 076°28'12918.5
2016-Nov-20 05:33N 37°03' W 076°05'1312.8
2016-Nov-20 04:33N 36°54' W 075°54'  

Dump ship's entire track history